createdAt,value
2017-09-23T00:00:32.293Z,16.47
2017-09-23T00:03:00.584Z,15.33
2017-09-23T00:05:28.836Z,18.37
2017-09-23T00:07:57.093Z,17.07
2017-09-23T00:10:25.350Z,17.90
2017-09-23T00:12:53.605Z,17.13
2017-09-23T00:15:21.866Z,17.10
2017-09-23T00:17:50.210Z,15.80
2017-09-23T00:20:18.474Z,17.40
2017-09-23T00:22:46.743Z,17.93
2017-09-23T00:25:14.983Z,18.60
2017-09-23T00:27:43.280Z,18.60
2017-09-23T00:30:11.852Z,17.30
2017-09-23T00:32:40.870Z,16.57
2017-09-23T00:35:09.169Z,17.90
2017-09-23T00:37:37.449Z,15.60
2017-09-23T00:40:05.702Z,15.87
2017-09-23T00:42:33.972Z,15.73
2017-09-23T00:45:02.235Z,15.90
2017-09-23T00:47:30.462Z,15.40
2017-09-23T00:49:58.739Z,16.63
2017-09-23T00:52:26.994Z,14.97
2017-09-23T00:54:55.238Z,16.93
2017-09-23T00:57:23.527Z,18.63
2017-09-23T00:59:51.769Z,18.90
2017-09-23T01:02:20.825Z,18.00
2017-09-23T01:04:49.880Z,18.90
2017-09-23T01:07:18.195Z,19.37
2017-09-23T01:09:46.447Z,19.67
2017-09-23T01:12:14.722Z,18.57
2017-09-23T01:14:42.983Z,16.50
2017-09-23T01:17:11.987Z,16.40
2017-09-23T01:19:40.238Z,15.70
2017-09-23T01:22:09.251Z,15.63
2017-09-23T01:24:37.526Z,17.63
2017-09-23T01:27:05.814Z,17.07
2017-09-23T01:29:34.148Z,17.40
2017-09-23T01:32:02.434Z,17.00
2017-09-23T01:34:30.670Z,18.20
2017-09-23T01:36:58.936Z,17.87
2017-09-23T01:39:27.176Z,17.07
2017-09-23T01:41:56.234Z,17.00
2017-09-23T01:44:24.522Z,15.00
2017-09-23T01:46:52.743Z,15.53
2017-09-23T01:49:21.019Z,15.83
2017-09-23T01:51:49.291Z,15.63
2017-09-23T01:54:18.332Z,17.80
2017-09-23T01:56:46.593Z,15.90
2017-09-23T01:59:14.845Z,16.20
2017-09-23T02:01:43.173Z,16.37
2017-09-23T02:04:11.446Z,16.87
2017-09-23T02:06:39.727Z,17.17
2017-09-23T02:09:07.963Z,18.57
2017-09-23T02:11:36.285Z,17.83
2017-09-23T02:14:04.695Z,18.40
2017-09-23T02:16:32.931Z,19.27
2017-09-23T02:19:01.197Z,18.97
2017-09-23T02:21:29.458Z,18.30
2017-09-23T02:23:57.742Z,18.30
2017-09-23T02:26:25.978Z,20.27
2017-09-23T02:28:55.005Z,18.60
2017-09-23T02:31:23.259Z,19.13
2017-09-23T02:33:52.302Z,19.00
2017-09-23T02:36:20.599Z,18.63
2017-09-23T02:38:48.829Z,17.77
2017-09-23T02:41:17.105Z,16.40
2017-09-23T02:43:46.126Z,18.37
2017-09-23T02:46:15.123Z,18.43
2017-09-23T02:48:43.394Z,18.47
2017-09-23T02:51:11.654Z,17.67
2017-09-23T02:53:39.911Z,19.37
2017-09-23T02:56:08.945Z,18.90
2017-09-23T02:58:37.248Z,21.73
2017-09-23T03:01:05.537Z,19.90
2017-09-23T03:03:33.795Z,17.27
2017-09-23T03:06:02.098Z,19.13
2017-09-23T03:08:30.330Z,18.87
2017-09-23T03:10:58.584Z,19.47
2017-09-23T03:13:26.834Z,19.53
2017-09-23T03:15:55.105Z,19.13
2017-09-23T03:18:24.121Z,16.90
2017-09-23T03:20:53.142Z,18.80
2017-09-23T03:23:21.425Z,18.83
2017-09-23T03:25:49.661Z,17.90
2017-09-23T03:28:17.933Z,18.60
2017-09-23T03:30:46.986Z,17.73
2017-09-23T03:33:15.245Z,17.37
2017-09-23T03:35:43.508Z,19.30
2017-09-23T03:38:11.779Z,18.90
2017-09-23T03:40:40.794Z,18.93
2017-09-23T03:43:09.056Z,19.10
2017-09-23T03:45:38.051Z,19.97
2017-09-23T03:48:06.324Z,19.43
2017-09-23T03:50:35.338Z,21.07
2017-09-23T03:53:04.390Z,19.90
2017-09-23T03:55:32.644Z,20.50
2017-09-23T03:58:00.926Z,20.00
2017-09-23T04:00:29.197Z,21.77
2017-09-23T04:02:57.466Z,22.07
2017-09-23T04:05:25.726Z,21.50
2017-09-23T04:07:54.010Z,21.80
2017-09-23T04:10:22.250Z,19.90
2017-09-23T04:12:51.290Z,20.67
2017-09-23T04:15:19.609Z,18.43
2017-09-23T04:17:47.816Z,23.50
2017-09-23T04:20:16.089Z,20.50
2017-09-23T04:22:44.383Z,19.90
2017-09-23T04:25:12.654Z,18.80
2017-09-23T04:27:40.919Z,19.20
2017-09-23T04:30:09.174Z,19.30
2017-09-23T04:32:38.212Z,20.00
2017-09-23T04:35:06.446Z,20.27
2017-09-23T04:37:35.493Z,19.37
2017-09-23T04:40:03.723Z,17.97
2017-09-23T04:42:32.012Z,19.00
2017-09-23T04:45:00.286Z,18.53
2017-09-23T04:47:28.568Z,18.73
2017-09-23T04:49:57.594Z,19.07
2017-09-23T04:52:25.848Z,20.60
2017-09-23T04:54:54.124Z,21.07
2017-09-23T04:57:23.523Z,22.63
2017-09-23T04:59:51.782Z,23.17
2017-09-23T05:02:21.285Z,25.53
2017-09-23T05:04:50.306Z,24.57
2017-09-23T05:07:18.565Z,26.30
2017-09-23T05:09:47.610Z,22.40
2017-09-23T05:12:15.858Z,21.50
2017-09-23T05:14:44.115Z,24.23
2017-09-23T05:17:12.394Z,25.30
2017-09-23T05:19:41.427Z,24.27
2017-09-23T05:22:09.685Z,24.80
2017-09-23T05:24:37.941Z,24.73
2017-09-23T05:27:06.960Z,23.57
2017-09-23T05:29:35.293Z,24.77
2017-09-23T05:32:03.524Z,21.33
2017-09-23T05:34:31.781Z,23.47
2017-09-23T05:37:00.811Z,22.93
2017-09-23T05:39:29.104Z,27.13
2017-09-23T05:41:57.345Z,25.20
2017-09-23T05:44:25.616Z,23.63
2017-09-23T05:46:53.871Z,24.90
2017-09-23T05:49:22.875Z,24.67
2017-09-23T05:51:51.138Z,22.77
2017-09-23T05:54:20.175Z,24.47
2017-09-23T05:56:48.464Z,24.37
2017-09-23T05:59:16.689Z,25.00
2017-09-23T06:01:45.722Z,24.10
2017-09-23T06:04:13.974Z,22.77
2017-09-23T06:06:42.235Z,20.80
2017-09-23T06:09:11.269Z,22.97
2017-09-23T06:11:39.526Z,23.57
2017-09-23T06:14:07.794Z,29.87
2017-09-23T06:16:36.825Z,25.93
2017-09-23T06:19:05.105Z,25.40
2017-09-23T06:21:33.382Z,24.53
2017-09-23T06:24:01.652Z,25.27
2017-09-23T06:26:29.912Z,24.30
2017-09-23T06:28:58.264Z,23.23
2017-09-23T06:31:26.526Z,26.90
2017-09-23T06:33:54.793Z,25.73
2017-09-23T06:36:23.055Z,25.10
2017-09-23T06:38:51.318Z,26.30
2017-09-23T06:41:19.605Z,29.37
2017-09-23T06:43:47.842Z,27.00
2017-09-23T06:46:16.949Z,29.83
2017-09-23T06:48:45.230Z,26.87
2017-09-23T06:51:13.531Z,29.50
2017-09-23T06:53:41.820Z,28.70
2017-09-23T06:56:10.099Z,29.43
2017-09-23T06:58:38.417Z,28.63
2017-09-23T07:01:06.638Z,29.13
2017-09-23T07:03:34.956Z,29.53
2017-09-23T07:06:03.199Z,30.10
2017-09-23T07:08:31.491Z,28.83
2017-09-23T07:10:59.767Z,29.30
2017-09-23T07:13:28.026Z,24.90
2017-09-23T07:15:56.282Z,25.07
2017-09-23T07:18:24.564Z,26.20
2017-09-23T07:20:52.813Z,24.80
2017-09-23T07:23:21.102Z,25.07
2017-09-23T07:25:50.174Z,26.93
2017-09-23T07:28:19.240Z,26.83
2017-09-23T07:30:47.532Z,27.63
2017-09-23T07:33:15.782Z,27.60
2017-09-23T07:35:44.082Z,29.63
2017-09-23T07:38:12.331Z,28.83
2017-09-23T07:40:40.579Z,31.47
2017-09-23T07:43:09.670Z,34.73
2017-09-23T07:45:38.738Z,31.73
2017-09-23T07:48:07.013Z,35.37
2017-09-23T07:50:35.327Z,36.83
2017-09-23T07:53:04.921Z,36.10
2017-09-23T07:55:33.178Z,37.33
2017-09-23T07:58:01.504Z,41.37
2017-09-23T08:00:29.884Z,36.70
2017-09-23T08:02:58.205Z,40.97
2017-09-23T08:05:26.484Z,41.70
2017-09-23T08:07:54.762Z,43.03
2017-09-23T08:10:23.061Z,46.20
2017-09-23T08:12:52.080Z,47.93
2017-09-23T08:15:20.337Z,49.33
2017-09-23T08:17:49.395Z,50.80
2017-09-23T08:20:17.712Z,50.57
2017-09-23T08:22:46.741Z,51.60
2017-09-23T08:25:14.983Z,51.60
2017-09-23T08:27:44.127Z,59.33
2017-09-23T08:30:12.415Z,68.90
2017-09-23T08:32:40.657Z,64.20
2017-09-23T08:35:08.963Z,67.87
2017-09-23T08:37:37.244Z,64.20
2017-09-23T08:40:05.531Z,67.63
2017-09-23T08:42:33.853Z,73.60
2017-09-23T08:45:02.128Z,76.97
2017-09-23T08:47:31.134Z,77.73
2017-09-23T08:49:59.387Z,78.90
2017-09-23T08:52:28.454Z,74.33
2017-09-23T08:54:56.697Z,75.73
2017-09-23T08:57:25.842Z,73.33
2017-09-23T08:59:54.860Z,72.83
2017-09-23T09:02:23.874Z,77.30
2017-09-23T09:04:52.144Z,76.10
2017-09-23T09:07:21.150Z,75.80
2017-09-23T09:09:49.515Z,70.53
2017-09-23T09:12:17.804Z,70.97
2017-09-23T09:14:46.084Z,71.90
2017-09-23T09:17:14.377Z,71.27
2017-09-23T09:19:42.678Z,69.50
2017-09-23T09:22:10.972Z,71.70
2017-09-23T09:24:39.265Z,68.70
2017-09-23T09:27:08.358Z,73.00
2017-09-23T09:29:36.633Z,73.37
2017-09-23T09:32:04.894Z,77.37
2017-09-23T09:34:33.203Z,71.80
2017-09-23T09:37:02.223Z,72.40
2017-09-23T09:39:30.561Z,73.47
2017-09-23T09:41:58.806Z,75.30
2017-09-23T09:44:27.102Z,78.50
2017-09-23T09:46:55.504Z,81.27
2017-09-23T09:49:23.778Z,80.07
2017-09-23T09:51:52.267Z,83.53
2017-09-23T09:54:20.534Z,78.33
2017-09-23T09:56:48.815Z,76.37
2017-09-23T09:59:17.091Z,71.17
2017-09-23T10:01:45.394Z,78.20
2017-09-23T10:04:14.433Z,79.00
2017-09-23T10:06:42.725Z,77.17
2017-09-23T10:09:10.982Z,75.23
2017-09-23T10:11:39.249Z,72.40
2017-09-23T10:14:07.540Z,70.20
2017-09-23T10:16:35.826Z,72.20
2017-09-23T10:19:04.268Z,70.60
2017-09-23T10:21:32.606Z,75.83
2017-09-23T10:24:00.872Z,69.63
2017-09-23T10:26:29.175Z,69.17
2017-09-23T10:28:57.630Z,71.27
2017-09-23T10:31:25.896Z,66.93
2017-09-23T10:33:54.193Z,71.03
2017-09-23T10:36:22.526Z,66.30
2017-09-23T10:38:50.870Z,69.83
2017-09-23T10:41:19.175Z,70.13
2017-09-23T10:43:47.494Z,63.33
2017-09-23T10:46:15.783Z,70.03
2017-09-23T10:48:44.063Z,66.53
2017-09-23T10:51:12.345Z,68.07
2017-09-23T10:53:40.622Z,66.07
2017-09-23T10:56:08.888Z,64.67
2017-09-23T10:58:37.620Z,69.80
2017-09-23T11:01:06.693Z,68.03
2017-09-23T11:03:34.917Z,68.67
2017-09-23T11:06:03.208Z,65.63
2017-09-23T11:08:31.491Z,60.63
2017-09-23T11:10:59.741Z,60.33
2017-09-23T11:13:28.179Z,64.57
2017-09-23T11:15:56.424Z,64.87
2017-09-23T11:18:24.695Z,64.43
2017-09-23T11:20:52.965Z,62.57
2017-09-23T11:23:21.225Z,67.53
2017-09-23T11:25:49.493Z,63.13
2017-09-23T11:28:17.804Z,66.17
2017-09-23T11:30:46.071Z,62.07
2017-09-23T11:33:14.367Z,64.70
2017-09-23T11:35:42.625Z,63.90
2017-09-23T11:38:10.896Z,61.77
2017-09-23T11:40:39.142Z,65.13
2017-09-23T11:43:08.191Z,64.20
2017-09-23T11:45:36.497Z,65.70
2017-09-23T11:48:05.532Z,64.73
2017-09-23T11:50:33.824Z,64.57
2017-09-23T11:53:02.823Z,65.93
2017-09-23T11:55:31.108Z,63.40
2017-09-23T11:57:59.576Z,67.37
2017-09-23T12:00:28.837Z,66.20
2017-09-23T12:02:57.919Z,69.33
2017-09-23T12:05:26.169Z,68.30
2017-09-23T12:07:55.672Z,64.53
2017-09-23T12:10:24.024Z,62.00
2017-09-23T12:12:52.271Z,66.50
2017-09-23T12:15:21.334Z,65.17
2017-09-23T12:17:49.688Z,60.30
2017-09-23T12:20:17.966Z,63.53
2017-09-23T12:22:46.242Z,63.13
2017-09-23T12:25:14.526Z,59.40
2017-09-23T12:27:42.792Z,62.33
2017-09-23T12:30:11.075Z,58.47
2017-09-23T12:32:39.340Z,60.47
2017-09-23T12:35:08.374Z,59.90
2017-09-23T12:37:36.662Z,57.93
2017-09-23T12:40:04.950Z,58.57
2017-09-23T12:42:33.995Z,59.27
2017-09-23T12:45:02.314Z,59.30
2017-09-23T12:47:30.593Z,59.20
2017-09-23T12:49:59.725Z,57.23
2017-09-23T12:52:28.764Z,56.73
2017-09-23T12:54:57.136Z,60.57
2017-09-23T12:57:25.417Z,62.87
2017-09-23T12:59:53.673Z,61.20
2017-09-23T13:02:21.976Z,59.37
2017-09-23T13:04:50.242Z,53.67
2017-09-23T13:07:18.484Z,54.50
2017-09-23T13:09:47.507Z,55.57
2017-09-23T13:12:15.780Z,56.20
2017-09-23T13:14:44.051Z,57.10
2017-09-23T13:17:12.351Z,58.57
2017-09-23T13:19:40.651Z,60.77
2017-09-23T13:22:08.958Z,57.63
2017-09-23T13:24:37.209Z,55.67
2017-09-23T13:27:05.551Z,55.30
2017-09-23T13:29:33.876Z,57.77
2017-09-23T13:32:02.927Z,57.50
2017-09-23T13:34:31.233Z,54.00
2017-09-23T13:36:59.504Z,54.67
2017-09-23T13:39:27.829Z,55.30
2017-09-23T13:41:56.075Z,54.37
2017-09-23T13:44:24.368Z,59.70
2017-09-23T13:46:53.429Z,56.10
2017-09-23T13:49:21.730Z,56.03
2017-09-23T13:51:50.018Z,53.87
2017-09-23T13:54:18.260Z,57.00
2017-09-23T13:56:46.524Z,54.00
2017-09-23T13:59:14.791Z,54.67
2017-09-23T14:01:43.140Z,54.07
2017-09-23T14:04:11.409Z,53.80
2017-09-23T14:06:39.705Z,54.23
2017-09-23T14:09:08.736Z,55.20
2017-09-23T14:11:37.011Z,56.47
2017-09-23T14:14:05.293Z,54.33
2017-09-23T14:16:33.582Z,53.90
2017-09-23T14:19:01.866Z,57.00
2017-09-23T14:21:30.141Z,55.00
2017-09-23T14:23:58.472Z,52.57
2017-09-23T14:26:27.479Z,54.70
2017-09-23T14:28:55.754Z,54.43
2017-09-23T14:31:24.043Z,55.70
2017-09-23T14:33:52.333Z,55.33
2017-09-23T14:36:20.619Z,59.10
2017-09-23T14:38:48.872Z,58.53
2017-09-23T14:41:17.129Z,56.57
2017-09-23T14:43:45.515Z,56.30
2017-09-23T14:46:13.783Z,58.13
2017-09-23T14:48:42.095Z,55.93
2017-09-23T14:51:10.394Z,56.30
2017-09-23T14:53:38.669Z,54.00
2017-09-23T14:56:06.936Z,54.60
2017-09-23T14:58:35.215Z,56.60
2017-09-23T15:01:03.527Z,54.03
2017-09-23T15:03:31.767Z,51.70
2017-09-23T15:06:00.164Z,54.73
2017-09-23T15:08:28.486Z,53.63
2017-09-23T15:10:56.769Z,52.73
2017-09-23T15:13:25.049Z,55.80
2017-09-23T15:15:53.306Z,54.90
2017-09-23T15:18:21.628Z,53.50
2017-09-23T15:20:49.931Z,52.30
2017-09-23T15:23:18.241Z,53.50
2017-09-23T15:25:46.503Z,50.77
2017-09-23T15:28:14.793Z,52.83
2017-09-23T15:30:43.878Z,54.67
2017-09-23T15:33:12.112Z,52.10
2017-09-23T15:35:40.434Z,50.60
2017-09-23T15:38:08.701Z,53.07
2017-09-23T15:40:37.007Z,51.87
2017-09-23T15:43:05.262Z,56.47
2017-09-23T15:45:34.352Z,52.00
2017-09-23T15:48:02.628Z,52.60
2017-09-23T15:50:30.904Z,53.17
2017-09-23T15:52:59.151Z,52.50
2017-09-23T15:55:27.434Z,53.73
2017-09-23T15:57:55.721Z,56.33
2017-09-23T16:00:24.014Z,56.03
2017-09-23T16:02:53.116Z,55.17
2017-09-23T16:05:21.419Z,57.77
2017-09-23T16:07:50.385Z,55.97
2017-09-23T16:10:18.668Z,56.73
2017-09-23T16:12:46.991Z,55.20
2017-09-23T16:15:16.021Z,52.87
2017-09-23T16:17:44.356Z,54.53
2017-09-23T16:20:12.638Z,55.67
2017-09-23T16:22:40.934Z,53.33
2017-09-23T16:25:09.248Z,54.60
2017-09-23T16:27:37.511Z,58.07
2017-09-23T16:30:05.795Z,60.40
2017-09-23T16:32:34.086Z,56.00
2017-09-23T16:35:02.713Z,61.77
2017-09-23T16:37:31.006Z,60.80
2017-09-23T16:39:59.289Z,57.17
2017-09-23T16:42:27.613Z,57.07
2017-09-23T16:44:56.683Z,54.60
2017-09-23T16:47:24.971Z,58.90
2017-09-23T16:49:53.259Z,60.57
2017-09-23T16:52:21.541Z,57.53
2017-09-23T16:54:50.839Z,57.13
2017-09-23T16:57:19.087Z,58.47
2017-09-23T16:59:47.585Z,58.53
2017-09-23T17:02:15.928Z,63.00
2017-09-23T17:04:44.568Z,58.90
2017-09-23T17:07:12.845Z,57.20
2017-09-23T17:09:41.222Z,56.13
2017-09-23T17:12:09.579Z,60.80
2017-09-23T17:14:37.857Z,60.80
2017-09-23T17:17:06.155Z,58.70
2017-09-23T17:19:34.452Z,63.03
2017-09-23T17:22:03.515Z,64.33
2017-09-23T17:24:31.838Z,63.87
2017-09-23T17:27:00.078Z,65.20
2017-09-23T17:29:29.173Z,61.33
2017-09-23T17:31:58.456Z,59.13
2017-09-23T17:34:26.753Z,58.87
2017-09-23T17:36:55.075Z,69.03
2017-09-23T17:39:23.367Z,66.70
2017-09-23T17:41:51.679Z,63.03
2017-09-23T17:44:20.077Z,62.53
2017-09-23T17:46:49.284Z,60.60
2017-09-23T17:49:17.740Z,64.90
2017-09-23T17:51:46.018Z,62.37
2017-09-23T17:54:14.323Z,60.40
2017-09-23T17:56:43.424Z,59.37
2017-09-23T17:59:11.743Z,62.33
2017-09-23T18:01:40.126Z,61.80
2017-09-23T18:04:08.454Z,60.07
2017-09-23T18:06:37.547Z,65.10
2017-09-23T18:09:05.790Z,66.60
2017-09-23T18:11:34.099Z,66.97
2017-09-23T18:14:02.473Z,68.47
2017-09-23T18:16:31.561Z,64.93
2017-09-23T18:18:59.815Z,67.53
2017-09-23T18:21:28.176Z,67.60
2017-09-23T18:23:56.446Z,64.60
2017-09-23T18:26:24.773Z,68.70
2017-09-23T18:28:53.064Z,64.33
2017-09-23T18:31:21.393Z,65.43
2017-09-23T18:33:49.815Z,65.50
2017-09-23T18:36:18.087Z,64.60
2017-09-23T18:38:46.365Z,60.17
2017-09-23T18:41:14.754Z,65.47
2017-09-23T18:43:43.510Z,67.23
2017-09-23T18:46:11.923Z,65.87
2017-09-23T18:48:40.234Z,61.80
2017-09-23T18:51:09.304Z,64.70
2017-09-23T18:53:47.523Z,62.47
2017-09-23T18:56:15.814Z,65.80
2017-09-23T18:58:44.086Z,63.83
2017-09-23T19:01:13.171Z,61.73
2017-09-23T19:03:42.272Z,65.23
2017-09-23T19:06:10.606Z,65.67
2017-09-23T19:08:50.190Z,61.27
2017-09-23T19:11:18.494Z,61.47
2017-09-23T19:13:46.838Z,65.30
2017-09-23T19:16:15.938Z,69.17
2017-09-23T19:18:44.228Z,61.23
2017-09-23T19:21:12.507Z,61.17
2017-09-23T19:23:40.821Z,62.17
2017-09-23T19:26:09.176Z,61.57
2017-09-23T19:28:37.657Z,63.97
2017-09-23T19:31:06.832Z,65.63
2017-09-23T19:33:35.130Z,65.10
2017-09-23T19:36:04.175Z,61.23
2017-09-23T19:38:32.456Z,62.20
2017-09-23T19:41:00.803Z,57.93
2017-09-23T19:43:29.342Z,65.83
2017-09-23T19:45:57.709Z,64.33
2017-09-23T19:48:26.082Z,65.63
2017-09-23T19:50:54.995Z,64.87
2017-09-23T19:53:23.292Z,61.23
2017-09-23T19:55:52.335Z,66.17
2017-09-23T19:58:20.685Z,65.90
2017-09-23T20:00:49.757Z,68.80
2017-09-23T20:03:18.382Z,64.27
2017-09-23T20:05:46.676Z,69.57
2017-09-23T20:08:15.828Z,70.20
2017-09-23T20:10:45.719Z,69.10
2017-09-23T20:13:14.027Z,67.03
2017-09-23T20:15:43.115Z,63.47
2017-09-23T20:18:12.117Z,61.00
2017-09-23T20:20:40.439Z,59.93
2017-09-23T20:23:08.743Z,61.23
2017-09-23T20:25:37.785Z,56.70
2017-09-23T20:28:06.080Z,56.27
2017-09-23T20:30:34.375Z,62.17
2017-09-23T20:33:03.574Z,60.93
2017-09-23T20:35:31.832Z,57.40
2017-09-23T20:38:00.230Z,59.77
2017-09-23T20:40:28.532Z,56.50
2017-09-23T20:42:57.614Z,62.57
2017-09-23T20:45:25.951Z,61.43
2017-09-23T20:47:54.222Z,63.03
2017-09-23T20:50:23.274Z,62.00
2017-09-23T20:52:51.542Z,62.40
2017-09-23T20:55:19.829Z,57.67
2017-09-23T20:57:48.118Z,54.97
2017-09-23T21:00:17.161Z,52.73
2017-09-23T21:02:45.444Z,55.20
2017-09-23T21:05:15.360Z,56.00
2017-09-23T21:07:43.679Z,55.73
2017-09-23T21:10:11.930Z,61.17
2017-09-23T21:12:40.217Z,56.53
2017-09-23T21:15:08.495Z,54.17
2017-09-23T21:17:36.755Z,62.90
2017-09-23T21:20:05.075Z,64.47
2017-09-23T21:22:33.324Z,59.53
2017-09-23T21:25:01.600Z,59.87
2017-09-23T21:27:29.852Z,59.73
2017-09-23T21:29:58.187Z,59.57
2017-09-23T21:32:27.240Z,57.27
2017-09-23T21:34:55.534Z,54.70
2017-09-23T21:37:23.821Z,56.33
2017-09-23T21:39:52.082Z,58.80
2017-09-23T21:42:20.353Z,57.67
2017-09-23T21:44:48.660Z,59.97
2017-09-23T21:47:17.776Z,60.80
2017-09-23T21:49:46.066Z,62.27
2017-09-23T21:52:14.333Z,60.27
2017-09-23T21:54:43.421Z,57.87
2017-09-23T21:57:12.829Z,62.20
2017-09-23T21:59:41.872Z,56.43
2017-09-23T22:02:10.151Z,58.43
2017-09-23T22:04:38.392Z,57.03
2017-09-23T22:07:06.700Z,54.60
2017-09-23T22:09:35.721Z,55.20
2017-09-23T22:12:03.961Z,52.43
2017-09-23T22:14:32.266Z,50.80
2017-09-23T22:17:00.672Z,49.73
2017-09-23T22:19:28.963Z,57.00
2017-09-23T22:21:57.997Z,56.13
2017-09-23T22:24:26.245Z,55.40
2017-09-23T22:26:54.575Z,53.10
2017-09-23T22:29:22.835Z,55.57
2017-09-23T22:31:51.084Z,55.63
2017-09-23T22:34:19.369Z,53.63
2017-09-23T22:36:47.670Z,55.00
2017-09-23T22:39:15.946Z,52.00
2017-09-23T22:41:44.219Z,50.17
2017-09-23T22:44:12.517Z,51.60
2017-09-23T22:46:40.776Z,54.20
2017-09-23T22:49:09.040Z,55.20
2017-09-23T22:51:37.294Z,54.60
2017-09-23T22:54:05.571Z,50.47
2017-09-23T22:56:33.871Z,53.47
2017-09-23T22:59:02.125Z,57.40
2017-09-23T23:01:31.208Z,57.40
2017-09-23T23:03:59.539Z,62.87
2017-09-23T23:06:27.795Z,62.30
2017-09-23T23:08:56.085Z,67.87
2017-09-23T23:11:24.351Z,71.00
2017-09-23T23:13:52.638Z,77.23
2017-09-23T23:16:20.918Z,78.03
2017-09-23T23:18:49.213Z,70.20
2017-09-23T23:21:17.543Z,62.50
2017-09-23T23:23:45.817Z,67.57
2017-09-23T23:26:14.847Z,69.97
2017-09-23T23:28:43.099Z,72.70
2017-09-23T23:31:11.457Z,73.80
2017-09-23T23:33:40.526Z,82.50
2017-09-23T23:36:08.815Z,83.97
2017-09-23T23:38:37.071Z,84.87
2017-09-23T23:41:05.350Z,86.37
2017-09-23T23:43:33.598Z,83.07
2017-09-23T23:46:01.844Z,87.70
2017-09-23T23:48:30.154Z,75.90
2017-09-23T23:50:58.406Z,74.83
2017-09-23T23:53:26.714Z,77.20
2017-09-23T23:55:54.978Z,69.00
2017-09-23T23:58:23.216Z,71.87
